Time;durP1;ratioP1;P1;durP2;ratioP2;P2;SDS_P1;SDS_P2;PMS_P1;PMS_P2;Temp;Humidity;BMP_temperature;BMP_pressure;BME280_temperature;BME280_humidity;BME280_pressure;Samples;Min_cycle;Max_cycle;Signal;HPM_P1;HPM_P2
2023/10/23 00:02:05;;;;;;;1.00;0.68;;;;;;;16.37;70.06;100907.16;20961676;28;20055;-72
2023/10/23 00:12:08;;;;;;;0.50;0.50;;;;;;;16.44;69.85;100917.41;20962913;28;20049;-72
2023/10/23 00:22:10;;;;;;;0.70;0.70;;;;;;;16.43;69.91;100927.28;20961940;28;20053;-72
2023/10/23 00:32:12;;;;;;;1.13;0.65;;;;;;;16.44;69.47;100929.00;20960782;28;20044;-72
2023/10/23 00:42:13;;;;;;;0.95;0.90;;;;;;;16.46;69.50;100939.63;20957757;28;20052;-72
2023/10/23 00:52:15;;;;;;;1.52;0.57;;;;;;;16.46;69.29;100947.69;20959885;28;20060;-72
2023/10/23 01:02:17;;;;;;;0.93;0.70;;;;;;;16.44;69.24;100944.28;20959005;28;20091;-72
2023/10/23 01:12:19;;;;;;;0.73;0.68;;;;;;;16.44;69.06;100946.97;20957711;28;20153;-72
2023/10/23 01:22:21;;;;;;;0.80;0.60;;;;;;;16.43;68.87;100950.63;20957563;28;20040;-72
2023/10/23 01:32:23;;;;;;;1.15;0.80;;;;;;;16.41;68.90;100944.53;20922313;28;20045;-72
2023/10/23 01:42:28;;;;;;;1.17;0.80;;;;;;;16.34;68.68;100934.25;20954610;28;20140;-72
2023/10/23 01:52:30;;;;;;;0.90;0.60;;;;;;;16.42;68.33;100946.25;20954554;28;20052;-72
2023/10/23 02:02:33;;;;;;;0.82;0.70;;;;;;;16.41;68.07;100939.16;20956606;28;20496;-72
2023/10/23 02:12:35;;;;;;;1.35;0.85;;;;;;;16.40;67.89;100956.25;20954000;28;20260;-72
2023/10/23 02:22:36;;;;;;;0.55;0.55;;;;;;;16.37;67.53;100965.41;20955907;28;20137;-72
2023/10/23 02:32:38;;;;;;;0.65;0.50;;;;;;;16.33;67.39;100980.91;20968983;28;20044;-72
2023/10/23 02:42:40;;;;;;;0.85;0.68;;;;;;;16.29;67.24;100992.88;20969244;28;20051;-72
2023/10/23 02:52:42;;;;;;;0.40;0.40;;;;;;;16.29;66.94;100992.88;20969021;28;20135;-73
2023/10/23 03:02:44;;;;;;;0.50;0.50;;;;;;;16.28;66.68;100996.56;20968246;28;20057;-72
2023/10/23 03:12:46;;;;;;;0.57;0.52;;;;;;;16.25;66.42;101004.88;20967351;28;20137;-72
2023/10/23 03:22:48;;;;;;;0.50;0.50;;;;;;;16.22;66.38;101010.47;20966650;28;20054;-72
2023/10/23 03:32:49;;;;;;;0.70;0.70;;;;;;;16.22;65.95;101021.22;20965776;28;20048;-72
2023/10/23 03:42:52;;;;;;;0.73;0.50;;;;;;;16.20;65.76;101020.50;20964789;28;20110;-72
2023/10/23 03:52:53;;;;;;;0.63;0.60;;;;;;;16.14;65.52;101042.47;20964699;28;20554;-71
2023/10/23 04:02:55;;;;;;;1.45;0.57;;;;;;;16.05;65.74;101025.25;20964106;28;20507;-72
2023/10/23 04:13:00;;;;;;;0.57;0.57;;;;;;;15.97;66.00;101044.66;20962989;28;20525;-72
2023/10/23 04:23:03;;;;;;;1.33;0.80;;;;;;;15.93;66.01;101022.56;20879361;28;20082;-72
2023/10/23 04:33:05;;;;;;;2.25;0.60;;;;;;;15.90;65.88;101022.81;20959482;28;20295;-72
2023/10/23 04:43:06;;;;;;;0.77;0.60;;;;;;;15.86;65.53;101010.56;20960185;28;20045;-72
2023/10/23 04:53:08;;;;;;;0.60;0.60;;;;;;;15.85;65.40;101014.22;20958439;28;20049;-72
2023/10/23 05:03:10;;;;;;;0.77;0.52;;;;;;;15.81;65.08;101018.97;20957416;28;20104;-73
2023/10/23 05:13:12;;;;;;;2.15;0.60;;;;;;;15.79;65.12;101028.97;20958670;28;20493;-72
2023/10/23 05:23:13;;;;;;;1.33;0.80;;;;;;;15.78;65.03;101029.94;20957808;28;20414;-72
2023/10/23 05:33:15;;;;;;;0.60;0.60;;;;;;;15.83;65.01;101028.72;20957264;28;20044;-72
2023/10/23 05:43:17;;;;;;;0.75;0.47;;;;;;;15.88;64.65;101035.50;20956540;28;20074;-72
2023/10/23 05:53:19;;;;;;;0.60;0.60;;;;;;;15.88;64.36;101040.88;20955104;28;20052;-72
2023/10/23 06:03:21;;;;;;;0.55;0.50;;;;;;;15.94;64.09;101045.75;20968421;28;20052;-72
2023/10/23 06:13:22;;;;;;;0.60;0.50;;;;;;;15.97;63.81;101052.72;20972162;28;20048;-72
2023/10/23 06:23:24;;;;;;;0.47;0.47;;;;;;;15.99;63.52;101069.56;20971662;28;20516;-71
2023/10/23 06:33:26;;;;;;;0.50;0.50;;;;;;;15.95;63.44;101074.31;20970600;28;20059;-69
2023/10/23 06:43:28;;;;;;;0.47;0.47;;;;;;;15.97;63.47;101079.56;20969727;28;20150;-72
2023/10/23 06:53:29;;;;;;;0.45;0.45;;;;;;;15.93;63.39;101094.22;20969482;28;20056;-73
2023/10/23 07:03:31;;;;;;;0.60;0.60;;;;;;;15.95;62.92;101094.94;20968138;28;20135;-72
2023/10/23 07:13:33;;;;;;;0.60;0.60;;;;;;;15.99;63.07;101093.75;20966333;28;20052;-72
2023/10/23 07:23:35;;;;;;;1.00;0.60;;;;;;;16.05;63.23;101084.31;20967374;28;20052;-72
2023/10/23 07:33:37;;;;;;;1.08;0.60;;;;;;;16.18;62.84;101100.34;20966236;28;20047;-72
2023/10/23 07:43:39;;;;;;;1.95;0.73;;;;;;;16.37;62.77;101107.81;20965162;28;20044;-72
2023/10/23 07:53:41;;;;;;;1.50;1.00;;;;;;;16.57;62.57;101114.31;20964430;28;20535;-73
2023/10/23 08:03:43;;;;;;;0.82;0.82;;;;;;;16.71;62.46;101098.88;20964016;28;20052;-72
2023/10/23 08:13:45;;;;;;;1.00;0.90;;;;;;;16.81;62.63;101107.94;20962458;28;20057;-72
2023/10/23 08:23:52;;;;;;;1.27;0.98;;;;;;;16.92;62.62;101115.13;20962067;28;20056;-72
2023/10/23 08:33:54;;;;;;;0.90;0.80;;;;;;;17.04;62.75;101105.22;20960919;28;20044;-72
2023/10/23 08:43:56;;;;;;;0.88;0.75;;;;;;;17.14;63.06;101114.25;20959954;28;20067;-72
2023/10/23 08:54:05;;;;;;;0.88;0.85;;;;;;;17.23;63.21;101113.50;20959548;28;20515;-72
2023/10/23 09:04:13;;;;;;;0.70;0.70;;;;;;;17.30;63.36;101102.25;20959268;28;20051;-72
2023/10/23 09:14:27;;;;;;;0.80;0.80;;;;;;;17.23;64.01;101101.88;20958235;28;20036;-72
2023/10/23 09:24:28;;;;;;;0.90;0.90;;;;;;;17.24;64.46;101114.34;20958145;28;20067;-72
2023/10/23 09:34:31;;;;;;;1.20;1.10;;;;;;;17.23;64.86;101093.81;20955055;28;20056;-72
2023/10/23 09:44:36;;;;;;;1.23;0.90;;;;;;;17.28;65.29;101096.97;20956753;28;20495;-72
2023/10/23 09:54:38;;;;;;;1.08;0.95;;;;;;;17.32;65.65;101084.97;20956872;28;20056;-72
2023/10/23 10:05:04;;;;;;;0.70;0.70;;;;;;;17.33;65.84;101089.38;20956390;28;20048;-72
2023/10/23 10:15:09;;;;;;;;;;;;;;;17.37;66.01;101112.34;20956305;28;20135;-71
2023/10/23 10:25:11;;;;;;;1.55;1.40;;;;;;;17.24;66.63;101098.22;20955461;28;19928;-72
2023/10/23 10:35:26;;;;;;;1.50;1.40;;;;;;;17.34;67.01;101106.38;20955315;28;20102;-72
2023/10/23 10:45:45;;;;;;;1.40;1.30;;;;;;;17.27;67.01;101087.19;20960025;28;20472;-71
2023/10/23 10:55:46;;;;;;;1.42;1.30;;;;;;;17.39;67.30;101096.09;20968989;28;20064;-72
2023/10/23 11:05:48;;;;;;;1.50;1.40;;;;;;;17.40;67.29;101087.03;20968305;28;20492;-72
2023/10/23 11:15:55;;;;;;;1.83;1.73;;;;;;;17.42;67.49;101081.50;20967828;28;20053;-71
2023/10/23 11:25:57;;;;;;;2.58;2.15;;;;;;;17.40;67.77;101076.25;20966983;28;20135;-72
2023/10/23 11:35:59;;;;;;;1.80;1.70;;;;;;;17.42;68.02;101068.03;20965427;28;20052;-73
2023/10/23 11:46:01;;;;;;;2.65;2.38;;;;;;;17.42;68.27;101068.03;20965468;28;20080;-73
2023/10/23 11:56:03;;;;;;;2.40;2.20;;;;;;;17.43;68.47;101059.84;20964117;28;20144;-73
2023/10/23 12:06:05;;;;;;;2.90;2.60;;;;;;;17.45;68.57;101052.50;20963320;28;20401;-74
2023/10/23 12:16:09;;;;;;;2.33;2.13;;;;;;;17.49;68.72;101045.03;20963027;28;20044;-74
2023/10/23 12:26:12;;;;;;;3.20;2.88;;;;;;;17.50;68.86;101026.06;20961910;28;20570;-74
2023/10/23 12:36:13;;;;;;;3.17;2.67;;;;;;;17.51;68.95;101011.59;20960447;28;20044;-73
2023/10/23 12:46:15;;;;;;;2.90;2.60;;;;;;;17.59;68.95;100999.31;20960359;28;20048;-73
2023/10/23 12:56:17;;;;;;;3.10;2.75;;;;;;;17.62;68.99;100993.66;20957895;28;20048;-74
2023/10/23 13:06:19;;;;;;;3.13;2.85;;;;;;;17.64;69.13;100986.31;20957944;28;20051;-73
2023/10/23 13:16:22;;;;;;;2.78;2.53;;;;;;;17.67;69.21;100984.22;20940096;28;20075;-73
2023/10/23 13:26:24;;;;;;;3.95;3.50;;;;;;;17.70;69.01;100975.03;20957801;28;20139;-73
2023/10/23 13:36:26;;;;;;;4.50;4.05;;;;;;;17.71;69.05;100949.81;20957028;28;20055;-74
2023/10/23 13:46:28;;;;;;;5.72;5.22;;;;;;;17.73;69.24;100928.13;20956877;28;20060;-73
2023/10/23 13:56:30;;;;;;;6.97;6.28;;;;;;;17.73;69.13;100926.31;20954974;28;20051;-74
2023/10/23 14:06:32;;;;;;;6.72;5.60;;;;;;;17.71;69.26;100898.66;20954504;28;20079;-73
2023/10/23 14:16:33;;;;;;;6.82;6.18;;;;;;;17.67;69.65;100891.81;20955744;28;20511;-72
2023/10/23 14:26:36;;;;;;;6.15;5.55;;;;;;;17.59;70.05;100872.81;20970670;28;20063;-72
2023/10/23 14:36:37;;;;;;;6.18;5.57;;;;;;;17.54;70.47;100862.44;20970742;28;20631;-74
2023/10/23 14:46:39;;;;;;;5.53;4.97;;;;;;;17.49;70.63;100856.63;20970200;28;20055;-73
2023/10/23 14:56:41;;;;;;;5.40;4.80;;;;;;;17.48;70.87;100852.22;20968829;28;20055;-74
2023/10/23 15:06:43;;;;;;;4.97;4.38;;;;;;;17.43;70.87;100828.41;20968633;28;20489;-73
2023/10/23 15:16:44;;;;;;;5.15;4.32;;;;;;;17.38;70.99;100815.34;20965748;28;20117;-73
2023/10/23 15:26:47;;;;;;;4.80;4.30;;;;;;;17.24;71.31;100784.28;20966983;28;20508;-73
2023/10/23 15:36:49;;;;;;;4.20;3.80;;;;;;;17.30;71.55;100792.81;20964798;28;20496;-73
2023/10/23 15:46:51;;;;;;;4.10;3.70;;;;;;;17.29;71.48;100780.34;20965287;28;20045;-73
2023/10/23 15:56:53;;;;;;;3.92;3.53;;;;;;;17.31;71.44;100772.97;20962667;28;20487;-73
2023/10/23 16:06:55;;;;;;;4.20;3.78;;;;;;;17.31;71.39;100770.28;20963450;28;20063;-73
2023/10/23 16:16:56;;;;;;;3.90;3.50;;;;;;;17.30;71.25;100772.13;20962927;28;20540;-71
2023/10/23 16:26:58;;;;;;;3.08;2.55;;;;;;;17.29;71.41;100774.97;20962027;28;20052;-71
2023/10/23 16:37:00;;;;;;;2.92;2.50;;;;;;;17.28;71.23;100765.19;20960478;28;20048;-71
2023/10/23 16:47:02;;;;;;;2.53;2.33;;;;;;;17.24;71.35;100759.22;20960629;28;20066;-70
2023/10/23 16:57:04;;;;;;;2.63;2.42;;;;;;;17.22;71.30;100755.81;20959421;28;20135;-71
2023/10/23 17:07:06;;;;;;;3.28;2.97;;;;;;;17.17;71.55;100758.06;20957280;28;20063;-71
2023/10/23 17:17:08;;;;;;;2.63;2.38;;;;;;;17.13;71.72;100741.31;20958817;28;20052;-70
2023/10/23 17:27:11;;;;;;;2.50;2.30;;;;;;;17.11;71.54;100737.91;20957470;28;20049;-69
2023/10/23 17:37:13;;;;;;;2.83;2.25;;;;;;;17.08;71.63;100732.81;20955007;28;20052;-71
2023/10/23 17:47:15;;;;;;;2.55;2.28;;;;;;;17.05;71.74;100708.88;20957122;28;20468;-68
2023/10/23 17:57:19;;;;;;;2.58;2.38;;;;;;;17.03;71.71;100686.66;20965645;28;20058;-72
2023/10/23 18:07:21;;;;;;;2.58;2.03;;;;;;;17.02;71.90;100669.66;20973248;28;20131;-71
2023/10/23 18:17:23;;;;;;;3.25;2.60;;;;;;;16.96;71.91;100649.50;20972068;28;20044;-71
2023/10/23 18:27:25;;;;;;;2.50;1.98;;;;;;;16.96;71.66;100622.63;20971481;28;20110;-71
2023/10/23 18:37:27;;;;;;;2.72;2.47;;;;;;;16.98;71.79;100610.91;20970144;28;20053;-72
2023/10/23 18:47:29;;;;;;;2.17;1.98;;;;;;;16.86;71.61;100557.22;20969905;28;20508;-71
2023/10/23 18:57:31;;;;;;;2.30;2.10;;;;;;;16.89;71.83;100562.31;20969337;28;20439;-71
2023/10/23 19:07:33;;;;;;;2.50;2.28;;;;;;;16.91;71.75;100576.47;20967463;28;20041;-72
2023/10/23 19:17:35;;;;;;;3.38;2.20;;;;;;;16.92;71.63;100582.69;20967662;28;20524;-71
2023/10/23 19:27:42;;;;;;;3.35;2.30;;;;;;;16.90;71.50;100580.16;20967482;28;20048;-72
2023/10/23 19:37:44;;;;;;;3.47;2.58;;;;;;;16.88;71.55;100594.69;20965751;28;20052;-71
2023/10/23 19:47:47;;;;;;;3.97;2.35;;;;;;;16.85;71.27;100593.16;20965416;28;20056;-71
2023/10/23 19:57:49;;;;;;;2.63;2.40;;;;;;;16.85;71.29;100582.41;20964708;28;20123;-72
2023/10/23 20:07:51;;;;;;;3.47;2.30;;;;;;;16.85;71.20;100576.16;20963585;28;20059;-71
2023/10/23 20:17:54;;;;;;;3.67;2.60;;;;;;;16.86;71.21;100573.34;20962381;28;20048;-72
2023/10/23 20:27:56;;;;;;;2.67;2.20;;;;;;;16.83;71.16;100557.50;20961929;28;20048;-72
2023/10/23 20:37:58;;;;;;;3.65;2.25;;;;;;;16.81;71.31;100538.81;20960893;28;20106;-72
2023/10/23 20:48:00;;;;;;;3.00;2.30;;;;;;;16.83;71.35;100538.69;20960520;28;20048;-71
2023/10/23 20:58:03;;;;;;;4.32;2.40;;;;;;;16.83;71.08;100519.84;20961530;28;20052;-72
2023/10/23 21:08:05;;;;;;;2.90;2.10;;;;;;;16.89;71.03;100502.28;20959235;28;20048;-71
2023/10/23 21:18:06;;;;;;;1.83;1.70;;;;;;;16.90;71.04;100488.72;20958435;28;20044;-71
2023/10/23 21:28:08;;;;;;;2.10;1.90;;;;;;;16.89;71.15;100465.53;20957030;28;20044;-72
2023/10/23 21:38:10;;;;;;;3.08;2.50;;;;;;;16.88;71.21;100438.75;20957020;28;20451;-72
2023/10/23 21:48:12;;;;;;;2.63;2.00;;;;;;;16.88;71.37;100419.94;20957241;28;20045;-71
2023/10/23 21:58:14;;;;;;;3.63;2.28;;;;;;;16.86;71.49;100390.53;20956515;28;20052;-71
2023/10/23 22:08:16;;;;;;;2.40;1.85;;;;;;;16.88;71.49;100364.34;20954760;28;20056;-71
2023/10/23 22:18:18;;;;;;;2.47;1.65;;;;;;;16.86;71.52;100336.75;20955985;28;20052;-71
2023/10/23 22:28:19;;;;;;;3.13;2.53;;;;;;;16.78;71.73;100293.59;20955342;28;20050;-71
2023/10/23 22:38:21;;;;;;;2.00;1.80;;;;;;;16.88;71.83;100277.44;20954995;28;20044;-71
2023/10/23 22:48:23;;;;;;;2.28;2.08;;;;;;;16.88;71.90;100256.81;20970224;28;20404;-71
2023/10/23 22:58:32;;;;;;;2.50;1.90;;;;;;;16.87;72.03;100238.97;20969129;28;20067;-68
2023/10/23 23:08:38;;;;;;;4.47;2.53;;;;;;;16.87;72.11;100230.91;20968374;28;20064;-72
2023/10/23 23:18:41;;;;;;;2.00;1.83;;;;;;;16.88;72.04;100229.06;20968197;28;20133;-72
2023/10/23 23:28:43;;;;;;;2.13;1.92;;;;;;;16.87;72.34;100195.97;20964948;28;20101;-71
2023/10/23 23:38:45;;;;;;;1.90;1.80;;;;;;;16.87;72.44;100166.38;20965498;28;20515;-72
2023/10/23 23:48:48;;;;;;;2.60;1.90;;;;;;;16.88;72.32;100148.41;20965703;28;20044;-72
2023/10/23 23:58:49;;;;;;;2.00;1.80;;;;;;;16.86;72.39;100137.81;20963616;28;20052;-71
